createdAt,value
2023-01-25T00:05:00.934Z,5.07
2023-01-25T00:10:07.094Z,5.90
2023-01-25T00:15:13.165Z,4.73
2023-01-25T00:20:19.056Z,4.70
2023-01-25T00:25:25.299Z,6.63
2023-01-25T00:30:30.758Z,9.67
2023-01-25T00:35:36.482Z,5.97
2023-01-25T00:40:41.855Z,5.47
2023-01-25T00:45:47.359Z,5.00
2023-01-25T00:50:52.849Z,7.47
2023-01-25T00:55:58.328Z,5.57
2023-01-25T01:01:04.071Z,4.23
2023-01-25T01:06:13.089Z,5.40
2023-01-25T01:11:18.675Z,5.47
2023-01-25T01:16:24.464Z,5.10
2023-01-25T01:21:30.220Z,5.63
2023-01-25T01:26:35.730Z,6.57
2023-01-25T01:31:41.203Z,8.77
2023-01-25T01:37:05.914Z,8.47
2023-01-25T01:42:12.232Z,5.83
2023-01-25T01:47:40.742Z,6.77
2023-01-25T01:52:47.859Z,6.87
2023-01-25T01:57:58.164Z,6.23
2023-01-25T02:03:04.464Z,7.50
2023-01-25T02:08:13.190Z,5.00
2023-01-25T02:13:20.972Z,5.00
2023-01-25T02:18:27.297Z,4.53
2023-01-25T02:23:52.482Z,3.87
2023-01-25T02:29:03.660Z,4.10
2023-01-25T02:34:09.522Z,3.20
2023-01-25T02:39:20.781Z,4.10
2023-01-25T02:44:31.689Z,4.00
2023-01-25T02:49:39.060Z,4.80
2023-01-25T02:54:45.878Z,5.03
2023-01-25T02:59:51.495Z,4.10
2023-01-25T03:04:57.138Z,3.97
2023-01-25T03:10:02.987Z,5.97
2023-01-25T03:15:10.547Z,4.23
2023-01-25T03:20:16.561Z,6.93
2023-01-25T03:25:22.398Z,4.23
2023-01-25T03:30:35.432Z,5.07
2023-01-25T03:35:41.007Z,5.67
2023-01-25T03:40:46.779Z,4.20
2023-01-25T03:45:57.231Z,5.27
2023-01-25T03:51:02.862Z,5.63
2023-01-25T03:56:14.758Z,5.13
2023-01-25T04:01:22.109Z,3.73
2023-01-25T04:06:27.923Z,4.80
2023-01-25T04:11:33.709Z,6.87
2023-01-25T04:16:39.485Z,6.57
2023-01-25T04:21:49.331Z,5.10
2023-01-25T04:26:55.413Z,4.10
2023-01-25T04:32:01.929Z,4.37
2023-01-25T04:37:08.019Z,5.03
2023-01-25T04:42:15.186Z,5.47
2023-01-25T04:47:22.380Z,5.83
2023-01-25T04:52:27.759Z,8.13
2023-01-25T04:57:33.208Z,4.77
2023-01-25T05:02:39.888Z,5.83
2023-01-25T05:07:45.749Z,7.63
2023-01-25T05:12:51.464Z,5.80
2023-01-25T05:17:56.985Z,6.63
2023-01-25T05:23:02.908Z,7.90
2023-01-25T05:28:09.195Z,9.20
2023-01-25T05:33:31.433Z,5.73
2023-01-25T05:38:37.174Z,5.90
2023-01-25T05:43:43.191Z,5.03
2023-01-25T05:48:49.588Z,6.53
2023-01-25T05:53:58.315Z,6.67
2023-01-25T05:59:04.065Z,5.80
2023-01-25T06:04:10.935Z,5.47
2023-01-25T06:09:16.622Z,5.33
2023-01-25T06:14:24.027Z,7.63
2023-01-25T06:19:30.741Z,8.07
2023-01-25T06:24:47.037Z,6.50
2023-01-25T06:29:52.415Z,5.57
2023-01-25T06:34:57.858Z,6.27
2023-01-25T06:40:03.512Z,5.00
2023-01-25T06:45:10.407Z,5.50
2023-01-25T06:50:16.751Z,6.73
2023-01-25T06:55:23.265Z,6.87
2023-01-25T07:00:28.786Z,7.30
2023-01-25T07:05:34.704Z,7.60
2023-01-25T07:10:40.287Z,6.83
2023-01-25T07:15:45.700Z,5.53
2023-01-25T07:20:51.545Z,6.00
2023-01-25T07:25:58.280Z,7.33
2023-01-25T07:31:10.230Z,9.67
2023-01-25T07:36:15.927Z,6.23
2023-01-25T07:41:21.728Z,5.63
2023-01-25T07:46:29.146Z,5.73
2023-01-25T07:51:34.886Z,7.33
2023-01-25T07:56:40.976Z,9.50
2023-01-25T08:01:46.614Z,5.37
2023-01-25T08:06:52.098Z,6.53
2023-01-25T08:11:57.476Z,6.50
2023-01-25T08:17:02.997Z,7.70
2023-01-25T08:22:10.086Z,7.50
2023-01-25T08:27:15.529Z,7.57
2023-01-25T08:32:21.022Z,6.00
2023-01-25T08:37:28.060Z,5.60
2023-01-25T08:42:33.508Z,7.53
2023-01-25T08:47:39.059Z,7.83
2023-01-25T08:52:44.501Z,6.97
2023-01-25T08:57:50.024Z,9.80
2023-01-25T09:02:55.479Z,7.33
2023-01-25T09:08:01.006Z,9.13
2023-01-25T09:13:08.657Z,8.77
2023-01-25T09:18:14.881Z,8.30
2023-01-25T09:23:21.894Z,11.47
2023-01-25T09:28:30.071Z,9.90
2023-01-25T09:33:37.649Z,10.60
2023-01-25T09:38:43.042Z,10.13
2023-01-25T09:44:14.591Z,8.87
2023-01-25T09:49:26.149Z,6.93
2023-01-25T09:54:42.336Z,8.40
2023-01-25T09:59:44.022Z,9.90
2023-01-25T10:04:52.501Z,8.43
2023-01-25T10:10:07.419Z,9.63
2023-01-25T10:15:24.683Z,10.73
2023-01-25T10:20:35.883Z,8.40
2023-01-25T10:25:44.303Z,10.60
2023-01-25T10:31:04.996Z,10.90
2023-01-25T10:36:19.053Z,14.80
2023-01-25T10:41:30.302Z,13.30
2023-01-25T10:46:36.812Z,8.43
2023-01-25T10:51:42.293Z,9.90
2023-01-25T10:56:48.951Z,13.50
2023-01-25T11:01:54.769Z,11.73
2023-01-25T11:07:02.613Z,9.60
2023-01-25T11:12:20.509Z,10.50
2023-01-25T11:17:30.657Z,12.00
2023-01-25T11:22:36.415Z,10.03
2023-01-25T11:27:41.900Z,14.03
2023-01-25T11:32:47.429Z,14.63
2023-01-25T11:38:04.969Z,12.40
2023-01-25T11:43:38.535Z,10.40
2023-01-25T11:48:53.573Z,11.07
2023-01-25T11:54:02.449Z,10.10
2023-01-25T11:59:38.130Z,12.70
2023-01-25T12:05:16.264Z,12.10
2023-01-25T12:10:23.721Z,12.03
2023-01-25T12:15:38.154Z,11.53
2023-01-25T12:21:08.479Z,10.07
2023-01-25T12:26:32.024Z,13.13
2023-01-25T12:31:40.541Z,12.37
2023-01-25T12:36:49.237Z,11.53
2023-01-25T12:42:12.651Z,14.50
2023-01-25T12:47:39.245Z,12.43
2023-01-25T12:53:05.640Z,10.57
2023-01-25T12:58:18.264Z,14.13
2023-01-25T13:03:58.695Z,18.53
2023-01-25T13:09:20.466Z,13.10
2023-01-25T13:14:40.829Z,13.17
2023-01-25T13:19:46.351Z,14.17
2023-01-25T13:25:07.718Z,10.83
2023-01-25T13:30:34.840Z,14.60
2023-01-25T13:35:45.161Z,11.90
2023-01-25T13:41:07.306Z,16.47
2023-01-25T13:46:15.725Z,17.70
2023-01-25T13:51:21.833Z,14.90
2023-01-25T13:56:30.917Z,15.57
2023-01-25T14:01:38.025Z,17.67
2023-01-25T14:06:44.103Z,15.30
2023-01-25T14:11:58.709Z,14.27
2023-01-25T14:17:16.354Z,16.10
2023-01-25T14:22:27.195Z,14.03
2023-01-25T14:27:32.790Z,12.60
2023-01-25T14:32:38.363Z,15.43
2023-01-25T14:37:44.441Z,15.83
2023-01-25T14:42:51.261Z,15.40
2023-01-25T14:47:59.466Z,14.80
2023-01-25T14:53:18.843Z,16.40
2023-01-25T14:58:28.013Z,17.97
2023-01-25T15:03:33.713Z,19.33
2023-01-25T15:08:40.923Z,13.53
2023-01-25T15:13:46.957Z,15.50
2023-01-25T15:18:57.549Z,17.17
2023-01-25T15:24:07.141Z,16.43
2023-01-25T15:29:19.743Z,17.23
2023-01-25T15:34:32.807Z,20.00
2023-01-25T15:39:39.064Z,18.07
2023-01-25T15:44:44.554Z,16.93
2023-01-25T15:49:50.021Z,16.00
2023-01-25T15:55:01.395Z,14.90
2023-01-25T16:00:03.393Z,16.90
2023-01-25T16:05:09.659Z,16.40
2023-01-25T16:10:24.425Z,16.47
2023-01-25T16:15:29.970Z,16.10
2023-01-25T16:20:35.524Z,16.43
2023-01-25T16:25:43.520Z,18.23
2023-01-25T16:30:50.103Z,19.87
2023-01-25T16:36:07.322Z,17.63
2023-01-25T16:41:14.151Z,18.90
2023-01-25T16:46:24.505Z,18.83
2023-01-25T16:51:30.581Z,16.30
2023-01-25T16:56:36.122Z,15.13
2023-01-25T17:01:42.114Z,20.00
2023-01-25T17:06:50.798Z,16.63
2023-01-25T17:11:56.636Z,16.07
2023-01-25T17:17:02.310Z,19.47
2023-01-25T17:22:07.835Z,19.37
2023-01-25T17:27:15.010Z,22.33
2023-01-25T17:32:20.475Z,19.30
2023-01-25T17:37:26.022Z,17.13
2023-01-25T17:42:31.472Z,19.17
2023-01-25T17:47:36.867Z,21.97
2023-01-25T17:52:42.323Z,20.80
2023-01-25T17:57:47.957Z,19.47
2023-01-25T18:02:54.892Z,17.20
2023-01-25T18:08:00.407Z,17.80
2023-01-25T18:13:05.794Z,17.90
2023-01-25T18:18:11.197Z,17.70
2023-01-25T18:23:16.709Z,19.47
2023-01-25T18:28:22.180Z,22.70
2023-01-25T18:33:28.273Z,15.87
2023-01-25T18:38:34.001Z,18.60
2023-01-25T18:43:39.505Z,18.87
2023-01-25T18:48:46.611Z,23.77
2023-01-25T18:53:52.284Z,27.37
2023-01-25T18:58:58.463Z,28.77
2023-01-25T19:04:04.007Z,28.17
2023-01-25T19:09:09.556Z,23.23
2023-01-25T19:14:14.945Z,24.70
2023-01-25T19:19:22.070Z,22.00
2023-01-25T19:24:28.113Z,22.20
2023-01-25T19:29:33.695Z,21.17
2023-01-25T19:34:40.129Z,23.03
2023-01-25T19:39:45.794Z,17.80
2023-01-25T19:44:51.414Z,19.70
2023-01-25T19:49:57.149Z,16.57
2023-01-25T19:55:02.717Z,20.83
2023-01-25T20:00:09.453Z,20.00
2023-01-25T20:05:14.995Z,22.80
2023-01-25T20:10:20.533Z,20.77
2023-01-25T20:15:26.072Z,24.23
2023-01-25T20:20:31.645Z,19.47
2023-01-25T20:25:37.374Z,22.47
2023-01-25T20:30:42.984Z,23.07
2023-01-25T20:35:50.254Z,22.00
2023-01-25T20:41:01.286Z,22.07
2023-01-25T20:46:06.981Z,24.40
2023-01-25T20:51:14.602Z,24.40
2023-01-25T20:56:20.545Z,23.47
2023-01-25T21:01:32.882Z,27.37
2023-01-25T21:06:38.914Z,21.03
2023-01-25T21:11:44.580Z,27.13
2023-01-25T21:16:50.215Z,26.30
2023-01-25T21:21:55.712Z,22.77
2023-01-25T21:27:01.239Z,20.37
2023-01-25T21:32:07.227Z,20.17
2023-01-25T21:37:12.843Z,17.93
2023-01-25T21:42:18.316Z,21.00
2023-01-25T21:47:30.458Z,27.10
2023-01-25T21:52:31.092Z,24.70
2023-01-25T21:57:36.695Z,22.27
2023-01-25T22:02:42.463Z,18.53
2023-01-25T22:07:48.261Z,20.77
2023-01-25T22:12:53.747Z,24.70
2023-01-25T22:17:59.156Z,22.87
2023-01-25T22:23:04.626Z,24.10
2023-01-25T22:28:13.148Z,20.27
2023-01-25T22:33:20.339Z,23.47
2023-01-25T22:38:25.774Z,23.07
2023-01-25T22:43:31.599Z,15.07
2023-01-25T22:48:37.599Z,18.80
2023-01-25T22:53:43.588Z,23.00
2023-01-25T22:58:50.068Z,20.17
2023-01-25T23:03:57.061Z,19.00
2023-01-25T23:09:05.369Z,21.67
2023-01-25T23:14:31.087Z,17.07
2023-01-25T23:19:36.550Z,17.43
2023-01-25T23:24:43.436Z,19.03
2023-01-25T23:29:50.075Z,21.87
2023-01-25T23:34:55.605Z,21.97
2023-01-25T23:40:00.997Z,17.37
2023-01-25T23:45:08.563Z,19.13
2023-01-25T23:50:14.193Z,18.57
2023-01-25T23:55:19.573Z,20.37
